Time;durP1;ratioP1;P1;durP2;ratioP2;P2;SDS_P1;SDS_P2;PMS_P1;PMS_P2;Temp;Humidity;BMP_temperature;BMP_pressure;BME280_temperature;BME280_humidity;BME280_pressure;Samples;Min_cycle;Max_cycle;Signal;HPM_P1;HPM_P2
2022/03/18 00:00:34;;;;;;;8.95;4.20;;;7.70;77.00;;;;;;5018858;28;20160;-79
2022/03/18 00:02:59;;;;;;;7.03;3.97;;;7.70;77.00;;;;;;5040457;28;20060;-80
2022/03/18 00:05:25;;;;;;;6.65;3.90;;;7.70;77.00;;;;;;5036244;28;20052;-80
2022/03/18 00:07:52;;;;;;;7.15;3.22;;;7.60;77.10;;;;;;5037713;28;20037;-79
2022/03/18 00:10:17;;;;;;;8.48;3.72;;;7.60;77.10;;;;;;5022341;28;20040;-80
2022/03/18 00:12:43;;;;;;;5.55;3.53;;;7.60;77.10;;;;;;5011009;28;20041;-79
2022/03/18 00:15:09;;;;;;;5.07;3.53;;;7.60;77.20;;;;;;5032514;28;20520;-79
2022/03/18 00:17:35;;;;;;;4.15;3.25;;;7.60;77.20;;;;;;5033146;28;20095;-78
2022/03/18 00:20:01;;;;;;;5.47;3.80;;;7.60;77.20;;;;;;5038171;28;20063;-79
2022/03/18 00:22:27;;;;;;;4.50;3.30;;;7.60;77.30;;;;;;5020429;28;20033;-79
2022/03/18 00:24:52;;;;;;;6.93;3.55;;;7.50;77.30;;;;;;5013076;28;20047;-79
2022/03/18 00:27:18;;;;;;;5.05;2.88;;;7.50;77.30;;;;;;5038176;28;20060;-80
2022/03/18 00:29:43;;;;;;;4.30;3.00;;;7.50;77.30;;;;;;5019475;28;20109;-80
2022/03/18 00:32:10;;;;;;;8.40;2.92;;;7.50;77.40;;;;;;5036012;28;20128;-79
2022/03/18 00:34:35;;;;;;;4.25;2.67;;;7.50;77.40;;;;;;5033699;28;20029;-79
2022/03/18 00:37:01;;;;;;;5.07;3.00;;;7.50;77.50;;;;;;4991686;28;20029;-79
2022/03/18 00:39:27;;;;;;;8.40;2.88;;;7.50;77.50;;;;;;5034245;28;20111;-79
2022/03/18 00:41:52;;;;;;;5.53;3.10;;;7.50;77.60;;;;;;5020167;28;20508;-79
2022/03/18 00:44:18;;;;;;;5.20;3.00;;;7.50;77.60;;;;;;5040505;28;20548;-79
2022/03/18 00:46:43;;;;;;;5.38;3.20;;;7.50;77.70;;;;;;5042443;28;20555;-79
2022/03/18 00:52:06;;;;;;;5.80;3.47;;;7.50;77.80;;;;;;5044599;28;20127;-79
2022/03/18 00:54:31;;;;;;;4.60;2.97;;;7.50;77.80;;;;;;5043821;28;20037;-79
2022/03/18 00:56:57;;;;;;;4.70;3.00;;;7.50;78.00;;;;;;5066046;28;20033;-80
2022/03/18 00:59:22;;;;;;;6.88;2.95;;;7.40;78.00;;;;;;5030679;28;20032;-79
2022/03/18 01:01:52;;;;;;;4.85;3.30;;;7.40;78.00;;;;;;5055743;28;20255;-80
2022/03/18 01:04:18;;;;;;;5.20;3.60;;;7.40;78.00;;;;;;5011817;28;20427;-79
2022/03/18 01:06:44;;;;;;;4.45;3.08;;;7.50;78.10;;;;;;5020559;28;20143;-79
2022/03/18 01:09:10;;;;;;;6.05;3.42;;;7.40;78.20;;;;;;5042970;28;20120;-79
2022/03/18 01:11:35;;;;;;;4.13;3.03;;;7.40;78.20;;;;;;5009648;28;20440;-79
2022/03/18 01:14:01;;;;;;;4.50;3.65;;;7.40;78.20;;;;;;5032299;28;20460;-79
2022/03/18 01:16:26;;;;;;;6.13;3.42;;;7.40;78.30;;;;;;5047950;28;20054;-79
2022/03/18 01:18:52;;;;;;;4.65;3.22;;;7.40;78.40;;;;;;5008658;28;20044;-79
2022/03/18 01:21:17;;;;;;;7.93;3.47;;;7.40;78.40;;;;;;5037434;28;20834;-79
2022/03/18 01:23:43;;;;;;;4.55;2.97;;;7.40;78.40;;;;;;5047480;28;20036;-79
2022/03/18 01:26:09;;;;;;;6.38;3.55;;;7.40;78.40;;;;;;5024900;28;20040;-78
2022/03/18 01:28:34;;;;;;;7.03;3.80;;;7.40;78.40;;;;;;5027985;28;20033;-78
2022/03/18 01:31:00;;;;;;;5.05;3.20;;;7.40;78.40;;;;;;5038007;28;20041;-79
2022/03/18 01:33:26;;;;;;;4.60;3.60;;;7.40;78.40;;;;;;5025851;28;20087;-78
2022/03/18 01:35:51;;;;;;;7.85;4.30;;;7.50;78.60;;;;;;5034266;28;20032;-78
2022/03/18 01:38:17;;;;;;;4.32;3.22;;;7.50;78.60;;;;;;5024010;28;20040;-78
2022/03/18 01:40:42;;;;;;;5.50;3.40;;;7.50;78.60;;;;;;5032923;28;20033;-78
2022/03/18 01:43:09;;;;;;;5.38;3.63;;;7.40;78.50;;;;;;5037795;28;20117;-78
2022/03/18 01:45:34;;;;;;;6.00;4.30;;;7.50;78.60;;;;;;5041316;28;20029;-78
2022/03/18 01:48:00;;;;;;;6.60;3.40;;;7.50;78.60;;;;;;5042181;28;20056;-78
2022/03/18 01:50:26;;;;;;;11.00;4.10;;;7.40;78.50;;;;;;5033238;28;20041;-78
2022/03/18 01:52:51;;;;;;;8.10;4.35;;;7.40;78.50;;;;;;5023890;28;20393;-78
2022/03/18 01:55:19;;;;;;;6.68;3.60;;;7.40;78.50;;;;;;5026286;28;20036;-78
2022/03/18 01:57:44;;;;;;;6.78;3.63;;;7.40;78.50;;;;;;5038857;28;20620;-78
2022/03/18 02:00:11;;;;;;;4.32;3.40;;;7.40;78.50;;;;;;5037154;28;20033;-79
2022/03/18 02:02:36;;;;;;;8.80;3.22;;;7.50;78.60;;;;;;5031439;28;20032;-77
2022/03/18 02:05:03;;;;;;;8.40;3.95;;;7.40;78.50;;;;;;5029349;28;20033;-78
2022/03/18 02:07:29;;;;;;;9.02;4.03;;;7.40;79.30;;;;;;5023502;28;20025;-78
2022/03/18 02:09:55;;;;;;;6.78;3.90;;;7.40;79.30;;;;;;5041851;28;20040;-79
2022/03/18 02:12:20;;;;;;;7.78;3.90;;;7.40;78.50;;;;;;5019299;28;20024;-77
2022/03/18 02:14:46;;;;;;;7.15;3.70;;;7.40;78.60;;;;;;5063662;28;20038;-78
2022/03/18 02:17:13;;;;;;;6.85;4.20;;;7.40;78.60;;;;;;5023614;28;20059;-78
2022/03/18 02:19:40;;;;;;;6.57;3.00;;;7.40;78.60;;;;;;5039141;28;20124;-77
2022/03/18 02:22:10;;;;;;;6.40;3.33;;;7.40;78.60;;;;;;5019974;28;20040;-79
2022/03/18 02:24:37;;;;;;;4.50;3.42;;;7.50;78.80;;;;;;5030848;28;20029;-78
2022/03/18 02:27:03;;;;;;;10.80;5.30;;;7.40;78.70;;;;;;5039642;28;20033;-78
2022/03/18 02:29:29;;;;;;;7.60;3.72;;;7.40;78.60;;;;;;5033792;28;20557;-78
2022/03/18 02:31:54;;;;;;;9.57;3.53;;;7.40;78.70;;;;;;5016594;28;20045;-78
2022/03/18 02:34:20;;;;;;;7.28;3.40;;;7.40;78.60;;;;;;5041162;28;20050;-78
2022/03/18 02:36:46;;;;;;;5.82;3.50;;;7.40;78.70;;;;;;5023593;28;20588;-78
2022/03/18 02:39:11;;;;;;;8.98;4.20;;;7.40;79.40;;;;;;5036659;28;20100;-78
2022/03/18 02:41:37;;;;;;;8.15;3.55;;;7.40;78.60;;;;;;5016236;28;20428;-78
2022/03/18 02:44:02;;;;;;;10.18;4.00;;;7.40;78.60;;;;;;5042218;28;20033;-78
2022/03/18 02:46:32;;;;;;;10.90;4.20;;;7.40;78.50;;;;;;5037551;28;20025;-80
2022/03/18 02:49:01;;;;;;;9.18;3.33;;;7.40;78.50;;;;;;5012845;28;20168;-78
2022/03/18 02:51:27;;;;;;;13.20;4.82;;;7.40;78.40;;;;;;5018491;28;20041;-78
2022/03/18 02:53:53;;;;;;;11.90;4.00;;;7.40;78.40;;;;;;5034631;28;20055;-78
2022/03/18 02:56:19;;;;;;;10.15;3.53;;;7.40;78.40;;;;;;5040053;28;20118;-79
2022/03/18 02:58:44;;;;;;;11.20;3.65;;;7.40;78.20;;;;;;5025460;28;20040;-78
2022/03/18 03:01:10;;;;;;;12.35;3.85;;;7.40;78.20;;;;;;5050953;28;20040;-80
2022/03/18 03:03:35;;;;;;;8.05;3.25;;;7.40;78.10;;;;;;5023674;28;20022;-79
2022/03/18 03:08:45;;;;;;;12.10;3.85;;;7.40;78.00;;;;;;5039216;28;20044;-80
2022/03/18 03:11:11;;;;;;;12.18;4.60;;;7.40;78.00;;;;;;5035232;28;20062;-80
2022/03/18 03:13:37;;;;;;;11.60;5.28;;;7.40;78.00;;;;;;5038771;28;20041;-79
2022/03/18 03:16:03;;;;;;;11.10;4.93;;;7.40;78.00;;;;;;5021665;28;20064;-80
2022/03/18 03:18:28;;;;;;;11.60;3.88;;;7.40;77.90;;;;;;5040783;28;20135;-79
2022/03/18 03:20:55;;;;;;;9.73;3.97;;;7.40;77.80;;;;;;5038364;28;20494;-79
2022/03/18 03:23:23;;;;;;;20.05;6.30;;;7.40;77.80;;;;;;5046285;28;20036;-80
2022/03/18 03:25:49;;;;;;;15.48;5.57;;;7.40;77.70;;;;;;5029746;28;20040;-78
2022/03/18 03:28:17;;;;;;;17.33;5.85;;;7.40;77.60;;;;;;5037926;28;20029;-79
2022/03/18 03:30:42;;;;;;;18.02;6.30;;;7.40;77.60;;;;;;5001934;28;20114;-77
2022/03/18 03:33:08;;;;;;;20.30;7.00;;;7.40;78.40;;;;;;5058572;28;20493;-80
2022/03/18 03:35:33;;;;;;;19.10;6.05;;;7.30;77.40;;;;;;5010110;28;20121;-79
2022/03/18 03:37:59;;;;;;;25.58;5.90;;;7.40;77.50;;;;;;5052869;28;20020;-78
2022/03/18 03:40:25;;;;;;;17.17;5.43;;;7.40;77.50;;;;;;5052106;28;20647;-78
2022/03/18 03:42:50;;;;;;;14.43;4.85;;;7.40;77.40;;;;;;5024106;28;20481;-79
2022/03/18 03:45:16;;;;;;;14.13;4.45;;;7.30;77.30;;;;;;5011111;28;20556;-79
2022/03/18 03:47:41;;;;;;;18.15;4.15;;;7.30;78.10;;;;;;5044246;28;20506;-80
2022/03/18 03:50:07;;;;;;;15.63;4.72;;;7.30;77.30;;;;;;5038277;28;20034;-79
2022/03/18 03:52:35;;;;;;;10.70;4.03;;;7.30;77.30;;;;;;5004875;28;20498;-79
2022/03/18 03:55:02;;;;;;;11.65;3.40;;;7.30;77.30;;;;;;5024448;28;20032;-79
2022/03/18 03:57:27;;;;;;;19.50;3.97;;;7.30;77.20;;;;;;5041276;28;20112;-78
2022/03/18 03:59:53;;;;;;;26.27;5.40;;;7.30;77.20;;;;;;5036687;28;20111;-78
2022/03/18 04:02:20;;;;;;;23.98;5.60;;;7.30;77.10;;;;;;5040071;28;20033;-78
2022/03/18 04:04:47;;;;;;;17.48;4.25;;;7.30;77.10;;;;;;5039147;28;20529;-78
2022/03/18 04:07:12;;;;;;;12.65;3.95;;;7.30;77.10;;;;;;5027573;28;20036;-78
2022/03/18 04:09:38;;;;;;;16.90;4.30;;;7.30;77.10;;;;;;5026500;28;20041;-78
2022/03/18 04:12:04;;;;;;;11.75;3.40;;;7.30;77.10;;;;;;5035596;28;20041;-79
2022/03/18 04:14:29;;;;;;;12.77;2.92;;;7.30;77.10;;;;;;5022213;28;20036;-78
2022/03/18 04:16:55;;;;;;;11.77;2.92;;;7.30;77.10;;;;;;5038222;28;20390;-77
2022/03/18 04:19:20;;;;;;;9.35;2.53;;;7.30;77.00;;;;;;5039854;28;20087;-79
2022/03/18 04:21:46;;;;;;;12.05;2.88;;;7.30;77.00;;;;;;5033289;28;20032;-78
2022/03/18 04:24:11;;;;;;;11.57;3.15;;;7.30;77.00;;;;;;5038075;28;20037;-78
2022/03/18 04:26:37;;;;;;;6.07;2.60;;;7.30;77.40;;;;;;5003279;28;20118;-78
2022/03/18 04:29:02;;;;;;;12.27;3.05;;;7.30;77.00;;;;;;5039507;28;20074;-79
2022/03/18 04:31:28;;;;;;;6.10;2.60;;;7.30;77.00;;;;;;5022811;28;20041;-79
2022/03/18 04:33:53;;;;;;;11.65;3.05;;;7.30;76.90;;;;;;5037870;28;20037;-79
2022/03/18 04:36:19;;;;;;;9.00;2.72;;;7.30;76.90;;;;;;5026272;28;20032;-79
2022/03/18 04:38:44;;;;;;;9.18;3.08;;;7.30;76.80;;;;;;5021769;28;20032;-80
2022/03/18 04:41:10;;;;;;;17.98;3.70;;;7.20;76.80;;;;;;5015545;28;20033;-79
2022/03/18 04:43:36;;;;;;;14.10;3.40;;;7.20;76.80;;;;;;5027398;28;20028;-79
2022/03/18 04:46:01;;;;;;;11.73;3.45;;;7.30;76.80;;;;;;5029242;28;20069;-79
2022/03/18 04:48:27;;;;;;;19.23;3.75;;;7.20;76.80;;;;;;5021796;28;20029;-79
2022/03/18 04:50:52;;;;;;;14.20;3.90;;;7.30;76.80;;;;;;5011516;28;20401;-78
2022/03/18 04:53:18;;;;;;;15.98;3.67;;;7.20;76.80;;;;;;5010202;28;20094;-79
2022/03/18 04:55:44;;;;;;;12.48;3.15;;;7.20;76.70;;;;;;5028216;28;20044;-78
2022/03/18 04:58:09;;;;;;;16.75;4.00;;;7.20;76.70;;;;;;5004253;28;20048;-78
2022/03/18 05:00:36;;;;;;;17.35;5.20;;;7.20;76.70;;;;;;5005157;28;20036;-79
2022/03/18 05:03:02;;;;;;;15.55;4.82;;;7.20;76.70;;;;;;5029728;28;20033;-79
2022/03/18 05:05:28;;;;;;;27.05;6.80;;;7.20;76.80;;;;;;5029846;28;20029;-78
2022/03/18 05:07:53;;;;;;;14.70;3.78;;;7.20;76.70;;;;;;5049913;28;20033;-79
2022/03/18 05:10:19;;;;;;;15.70;4.43;;;7.20;76.70;;;;;;5021335;28;20076;-77
2022/03/18 05:12:45;;;;;;;7.78;2.90;;;7.20;76.70;;;;;;5038635;28;20525;-79
2022/03/18 05:15:11;;;;;;;9.15;2.95;;;7.20;76.70;;;;;;5032322;28;20235;-78
2022/03/18 05:17:37;;;;;;;7.18;2.38;;;7.20;76.80;;;;;;5039847;28;20938;-78
2022/03/18 05:20:04;;;;;;;14.20;3.20;;;7.20;76.70;;;;;;5024009;28;20051;-78
2022/03/18 05:22:30;;;;;;;11.57;3.63;;;7.20;76.70;;;;;;5032025;28;20052;-78
2022/03/18 05:24:56;;;;;;;10.85;2.42;;;7.20;76.70;;;;;;5031888;28;20075;-78
2022/03/18 05:27:22;;;;;;;8.30;2.97;;;7.20;76.70;;;;;;5033323;28;20061;-78
2022/03/18 05:29:48;;;;;;;11.75;2.47;;;7.20;76.70;;;;;;5039497;28;20053;-78
2022/03/18 05:32:14;;;;;;;13.57;2.67;;;7.20;76.70;;;;;;5037084;28;20033;-78
2022/03/18 05:34:39;;;;;;;9.13;3.80;;;7.20;76.60;;;;;;5017361;28;20175;-78
2022/03/18 05:37:08;;;;;;;6.38;2.55;;;7.20;76.70;;;;;;5015660;28;20036;-77
2022/03/18 05:39:34;;;;;;;7.40;2.63;;;7.20;76.70;;;;;;5002284;28;20037;-78
2022/03/18 05:41:59;;;;;;;8.27;2.38;;;7.20;76.60;;;;;;5013051;28;20122;-78
2022/03/18 05:44:25;;;;;;;6.95;2.53;;;7.20;76.60;;;;;;5031847;28;20527;-78
2022/03/18 05:46:51;;;;;;;7.78;2.90;;;7.10;76.50;;;;;;5022829;28;20508;-78
2022/03/18 05:49:18;;;;;;;7.72;2.15;;;7.10;76.60;;;;;;5041782;28;20037;-78
2022/03/18 05:51:44;;;;;;;8.55;2.97;;;7.10;76.50;;;;;;5030309;28;20087;-79
2022/03/18 05:54:10;;;;;;;14.75;2.72;;;7.20;76.50;;;;;;5039366;28;20041;-78
2022/03/18 05:56:54;;;;;;;9.20;2.53;;;7.10;76.50;;;;;;5023658;28;20036;-78
2022/03/18 05:59:20;;;;;;;6.93;3.42;;;7.10;76.40;;;;;;5037267;28;20044;-79
2022/03/18 06:01:46;;;;;;;9.88;2.53;;;7.20;76.50;;;;;;5004916;28;20052;-79
2022/03/18 06:04:12;;;;;;;6.85;2.78;;;7.10;76.40;;;;;;5029516;28;20117;-79
2022/03/18 06:06:38;;;;;;;7.80;2.55;;;7.10;76.40;;;;;;5035262;28;20028;-78
2022/03/18 06:11:49;;;;;;;11.93;3.35;;;7.10;76.30;;;;;;5018957;28;20088;-79
2022/03/18 06:14:15;;;;;;;12.90;5.57;;;7.10;76.30;;;;;;5025218;28;20497;-79
2022/03/18 06:16:41;;;;;;;14.50;4.95;;;7.10;76.30;;;;;;5017678;28;20036;-78
2022/03/18 06:19:07;;;;;;;13.80;4.13;;;7.10;76.30;;;;;;5039596;28;20404;-79
2022/03/18 06:21:32;;;;;;;13.02;5.20;;;7.10;76.30;;;;;;5020570;28;20531;-78
2022/03/18 06:23:58;;;;;;;19.83;7.95;;;7.10;76.30;;;;;;5037228;28;20460;-79
2022/03/18 06:26:23;;;;;;;12.38;4.10;;;7.10;76.30;;;;;;5041529;28;20100;-80
2022/03/18 06:28:49;;;;;;;8.82;4.07;;;7.10;76.30;;;;;;5026024;28;20144;-79
2022/03/18 06:31:15;;;;;;;14.23;3.60;;;7.10;76.20;;;;;;5035323;28;20601;-79
2022/03/18 06:33:44;;;;;;;12.75;3.17;;;7.10;77.00;;;;;;5018493;28;20044;-80
2022/03/18 06:36:12;;;;;;;15.10;3.08;;;7.10;76.20;;;;;;5004275;28;20036;-78
2022/03/18 06:38:45;;;;;;;6.43;2.53;;;7.10;76.20;;;;;;5017500;28;20468;-77
2022/03/18 06:41:11;;;;;;;10.27;2.22;;;7.10;76.20;;;;;;5047358;28;20465;-79
2022/03/18 06:43:36;;;;;;;10.50;2.90;;;7.10;76.10;;;;;;5033083;28;20128;-78
2022/03/18 06:46:02;;;;;;;10.70;2.72;;;7.10;76.10;;;;;;5019280;28;20045;-78
2022/03/18 06:48:28;;;;;;;8.77;2.70;;;7.20;76.20;;;;;;5025418;28;20120;-79
2022/03/18 06:50:53;;;;;;;7.40;2.60;;;7.20;76.10;;;;;;5029492;28;20632;-79
2022/03/18 06:53:19;;;;;;;5.43;2.05;;;7.20;76.20;;;;;;5040158;28;20330;-79
2022/03/18 06:55:44;;;;;;;8.93;2.70;;;7.20;76.10;;;;;;4998760;28;20510;-79
2022/03/18 06:58:10;;;;;;;11.02;2.83;;;7.20;76.00;;;;;;5036266;28;20025;-80
2022/03/18 07:00:36;;;;;;;8.32;2.50;;;7.20;76.00;;;;;;5021029;28;20025;-79
2022/03/18 07:03:02;;;;;;;7.80;2.67;;;7.20;75.90;;;;;;5020916;28;20636;-79
2022/03/18 07:05:27;;;;;;;8.15;2.45;;;7.20;75.90;;;;;;5023797;28;20032;-79
2022/03/18 07:07:53;;;;;;;9.85;2.83;;;7.20;75.90;;;;;;5023209;28;20124;-78
2022/03/18 07:10:20;;;;;;;10.38;2.63;;;7.30;75.90;;;;;;5029092;28;20130;-78
2022/03/18 07:12:46;;;;;;;5.30;2.63;;;7.30;75.90;;;;;;5039003;28;20114;-78
2022/03/18 07:15:11;;;;;;;8.70;2.15;;;7.30;75.80;;;;;;5030611;28;20124;-78
2022/03/18 07:17:55;;;;;;;5.25;3.03;;;7.30;75.80;;;;;;5026166;28;20027;-79
2022/03/18 07:20:22;;;;;;;7.60;2.42;;;7.40;75.80;;;;;;5032770;28;20106;-79
2022/03/18 07:23:21;;;;;;;6.97;2.50;;;7.40;75.80;;;;;;5035353;28;20079;-79
2022/03/18 07:25:47;;;;;;;7.57;2.13;;;7.40;75.60;;;;;;5022936;28;20040;-79
2022/03/18 07:28:14;;;;;;;6.40;2.30;;;7.40;75.60;;;;;;5023776;28;20056;-77
2022/03/18 07:30:40;;;;;;;5.38;2.28;;;7.40;75.50;;;;;;5036176;28;20040;-78
2022/03/18 07:33:06;;;;;;;8.23;2.65;;;7.40;75.40;;;;;;5003372;28;20029;-78
2022/03/18 07:35:32;;;;;;;5.05;2.92;;;7.40;75.30;;;;;;5010102;28;20033;-79
2022/03/18 07:37:57;;;;;;;7.35;2.60;;;7.50;75.30;;;;;;5039921;28;20032;-79
2022/03/18 07:40:23;;;;;;;16.30;3.17;;;7.50;75.20;;;;;;5010655;28;21769;-79
2022/03/18 07:42:50;;;;;;;7.95;2.72;;;7.50;75.30;;;;;;5031082;28;20052;-78
2022/03/18 07:45:26;;;;;;;6.90;2.78;;;7.50;75.10;;;;;;5039932;28;20036;-79
2022/03/18 07:47:52;;;;;;;10.13;2.63;;;7.60;75.20;;;;;;5026417;28;20074;-78
2022/03/18 07:50:20;;;;;;;9.75;3.08;;;7.60;75.10;;;;;;5043949;28;20116;-79
2022/03/18 07:52:49;;;;;;;6.30;2.60;;;7.70;75.10;;;;;;5034680;28;20072;-79
2022/03/18 07:55:15;;;;;;;12.50;2.78;;;7.70;74.90;;;;;;5019473;28;20044;-78
2022/03/18 07:57:41;;;;;;;13.07;3.20;;;7.70;74.80;;;;;;5033496;28;20094;-79
2022/03/18 08:00:08;;;;;;;8.02;2.72;;;7.80;74.70;;;;;;5035918;28;20439;-79
2022/03/18 08:02:33;;;;;;;8.32;3.15;;;7.80;74.60;;;;;;5003328;28;20050;-79
2022/03/18 08:04:59;;;;;;;11.30;3.13;;;7.80;74.50;;;;;;5034808;28;20034;-79
2022/03/18 08:07:26;;;;;;;5.57;2.25;;;7.90;74.50;;;;;;5036086;28;20021;-78
2022/03/18 08:09:52;;;;;;;5.63;2.55;;;7.90;74.30;;;;;;5038452;28;20044;-79
2022/03/18 08:12:17;;;;;;;7.90;2.60;;;8.00;74.30;;;;;;5038462;28;20069;-79
2022/03/18 08:14:43;;;;;;;6.97;2.40;;;8.00;74.20;;;;;;5019716;28;20494;-80
2022/03/18 08:17:09;;;;;;;4.30;2.40;;;8.10;74.20;;;;;;5020114;28;20036;-78
2022/03/18 08:19:34;;;;;;;8.82;2.90;;;8.20;74.00;;;;;;5059001;28;20461;-79
2022/03/18 08:22:01;;;;;;;9.50;2.70;;;8.20;73.80;;;;;;5036248;28;20413;-79
2022/03/18 08:24:27;;;;;;;7.25;2.55;;;8.30;73.70;;;;;;5013764;28;20060;-78
2022/03/18 08:26:54;;;;;;;8.65;2.70;;;8.30;73.60;;;;;;5026226;28;20067;-79
2022/03/18 08:29:19;;;;;;;13.82;3.58;;;8.40;73.60;;;;;;5034988;28;20056;-79
2022/03/18 08:31:45;;;;;;;11.10;3.00;;;8.50;73.50;;;;;;5018511;28;20032;-78
2022/03/18 08:34:10;;;;;;;6.45;2.33;;;8.50;73.40;;;;;;5012588;28;20041;-78
2022/03/18 08:36:36;;;;;;;8.70;2.53;;;8.60;73.30;;;;;;5026952;28;20424;-78
2022/03/18 08:39:02;;;;;;;5.55;2.47;;;8.70;73.10;;;;;;5022087;28;20035;-76
2022/03/18 08:41:27;;;;;;;9.20;2.42;;;8.80;72.90;;;;;;5021616;28;20037;-78
2022/03/18 08:43:53;;;;;;;7.70;2.10;;;8.90;72.80;;;;;;5037339;28;20124;-78
2022/03/18 08:46:18;;;;;;;7.97;2.97;;;8.90;72.50;;;;;;5036879;28;20061;-79
2022/03/18 08:48:44;;;;;;;6.97;2.53;;;9.00;72.50;;;;;;5034805;28;20037;-77
2022/03/18 08:51:13;;;;;;;9.63;2.45;;;9.20;72.30;;;;;;5018910;28;20045;-78
2022/03/18 08:53:38;;;;;;;5.88;2.00;;;9.30;72.10;;;;;;5023881;28;20036;-78
2022/03/18 08:56:04;;;;;;;5.70;2.78;;;9.40;71.90;;;;;;5033999;28;20367;-78
2022/03/18 08:58:30;;;;;;;5.90;2.25;;;9.60;71.70;;;;;;5014169;28;20033;-78
2022/03/18 09:00:55;;;;;;;7.90;2.30;;;9.70;71.30;;;;;;5037646;28;20033;-79
2022/03/18 09:03:21;;;;;;;7.45;2.67;;;9.80;71.90;;;;;;5036692;28;20108;-79
2022/03/18 09:05:46;;;;;;;9.48;2.40;;;10.00;70.80;;;;;;5018729;28;20179;-78
2022/03/18 09:08:13;;;;;;;6.57;2.40;;;10.10;70.60;;;;;;5026645;28;20056;-78
2022/03/18 09:10:38;;;;;;;7.32;2.50;;;10.10;70.20;;;;;;5054653;28;20518;-79
2022/03/18 09:13:04;;;;;;;5.70;2.03;;;10.20;70.00;;;;;;5038706;28;20034;-77
2022/03/18 09:15:30;;;;;;;8.30;2.30;;;10.20;69.80;;;;;;5049079;28;20036;-78
2022/03/18 09:17:55;;;;;;;9.68;2.35;;;10.30;69.70;;;;;;5037739;28;20041;-78
2022/03/18 09:20:21;;;;;;;5.90;2.10;;;10.40;69.50;;;;;;5044087;28;20032;-80
2022/03/18 09:22:46;;;;;;;5.15;2.13;;;10.50;69.30;;;;;;5039465;28;20033;-80
2022/03/18 09:25:12;;;;;;;6.55;2.40;;;10.60;69.00;;;;;;5020668;28;20040;-79
2022/03/18 09:27:38;;;;;;;5.35;2.35;;;10.70;68.90;;;;;;5037233;28;20037;-78
2022/03/18 09:30:04;;;;;;;5.63;2.33;;;10.80;68.60;;;;;;5008173;28;20132;-80
2022/03/18 09:32:29;;;;;;;9.50;2.40;;;10.80;68.40;;;;;;5024436;28;20200;-78
2022/03/18 09:34:55;;;;;;;6.50;2.40;;;10.90;68.20;;;;;;5023096;28;20181;-78
2022/03/18 09:37:21;;;;;;;5.45;2.38;;;11.00;68.00;;;;;;5011506;28;20099;-80
2022/03/18 09:39:46;;;;;;;5.95;2.20;;;11.00;67.70;;;;;;5019624;28;20025;-79
2022/03/18 09:42:12;;;;;;;10.50;2.63;;;11.10;67.50;;;;;;5035396;28;20039;-78
2022/03/18 09:44:38;;;;;;;6.03;2.50;;;11.20;67.40;;;;;;5029608;28;20056;-79
2022/03/18 09:47:08;;;;;;;6.32;2.35;;;11.30;67.30;;;;;;5020516;28;20036;-78
2022/03/18 09:49:34;;;;;;;6.65;2.53;;;11.40;67.00;;;;;;5015181;28;20285;-77
2022/03/18 09:52:00;;;;;;;5.65;2.55;;;11.60;67.10;;;;;;5015365;28;20044;-78
2022/03/18 09:54:27;;;;;;;6.93;2.40;;;11.70;66.80;;;;;;5010183;28;20033;-77
2022/03/18 09:56:53;;;;;;;4.55;2.53;;;11.80;66.40;;;;;;5023973;28;20093;-76
2022/03/18 09:59:21;;;;;;;11.93;2.88;;;11.90;66.20;;;;;;5042534;28;20136;-77
2022/03/18 10:01:46;;;;;;;5.90;2.20;;;12.00;66.00;;;;;;5015615;28;20029;-76
2022/03/18 10:04:12;;;;;;;8.23;2.20;;;12.10;65.80;;;;;;5018272;28;20116;-77
2022/03/18 10:06:39;;;;;;;9.27;2.78;;;12.10;65.50;;;;;;5006066;28;20053;-77
2022/03/18 10:09:05;;;;;;;6.65;2.63;;;12.20;65.30;;;;;;5019642;28;20072;-79
2022/03/18 10:11:31;;;;;;;11.88;2.83;;;12.30;65.20;;;;;;5038431;28;20072;-77
2022/03/18 10:14:01;;;;;;;7.13;2.70;;;12.40;65.00;;;;;;5042241;28;20120;-77
2022/03/18 10:16:34;;;;;;;9.75;3.08;;;12.50;64.90;;;;;;5047515;28;20123;-77
2022/03/18 10:19:05;;;;;;;4.13;2.70;;;12.60;64.50;;;;;;5030789;28;20041;-78
2022/03/18 10:21:31;;;;;;;5.32;4.38;;;12.70;64.30;;;;;;5035139;28;20099;-78
2022/03/18 10:24:07;;;;;;;7.85;4.00;;;12.80;64.30;;;;;;5032940;28;20032;-79
2022/03/18 10:26:34;;;;;;;8.73;4.80;;;13.00;63.80;;;;;;5008031;28;20076;-79
2022/03/18 10:29:03;;;;;;;5.72;2.75;;;13.20;63.90;;;;;;5031424;28;20036;-79
2022/03/18 10:31:28;;;;;;;8.02;2.85;;;13.20;63.60;;;;;;5044122;28;20072;-79
2022/03/18 10:37:04;;;;;;;6.35;2.80;;;13.60;62.90;;;;;;5039823;28;20032;-79
2022/03/18 10:39:34;;;;;;;4.53;2.70;;;13.90;63.10;;;;;;5009146;28;20033;-79
2022/03/18 10:42:02;;;;;;;5.97;2.92;;;14.00;62.70;;;;;;5017514;28;20065;-79
2022/03/18 10:44:48;;;;;;;7.57;3.00;;;14.10;62.10;;;;;;4998653;28;20712;-79
2022/03/18 10:47:37;;;;;;;5.30;2.38;;;14.20;61.00;;;;;;5030732;28;20029;-79
2022/03/18 10:50:11;;;;;;;6.63;2.55;;;14.40;60.80;;;;;;5050389;28;20559;-78
2022/03/18 10:52:46;;;;;;;4.75;2.40;;;14.50;60.60;;;;;;5047813;28;20037;-78
2022/03/18 10:55:30;;;;;;;6.95;2.38;;;14.50;60.80;;;;;;5038626;28;20104;-79
2022/03/18 10:57:59;;;;;;;9.63;2.80;;;14.60;60.10;;;;;;5003632;28;20033;-79
2022/03/18 11:00:25;;;;;;;5.25;2.38;;;14.70;60.70;;;;;;5023908;28;20117;-78
2022/03/18 11:03:25;;;;;;;5.13;2.85;;;14.70;60.40;;;;;;5012463;28;20029;-78
2022/03/18 11:05:51;;;;;;;6.15;3.00;;;14.90;59.60;;;;;;5058625;28;20085;-78
2022/03/18 11:08:24;;;;;;;7.35;3.30;;;14.90;60.00;;;;;;5019377;28;20109;-78
2022/03/18 11:14:03;;;;;;;6.38;2.92;;;15.00;59.60;;;;;;5026292;28;20061;-78
2022/03/18 11:16:30;;;;;;;7.03;2.72;;;15.10;58.30;;;;;;5003211;28;20112;-80
2022/03/18 11:18:57;;;;;;;4.50;2.40;;;15.00;59.00;;;;;;4994497;28;20036;-81
2022/03/18 11:21:28;;;;;;;6.00;3.28;;;15.10;59.00;;;;;;5020320;28;20041;-80
2022/03/18 11:23:55;;;;;;;4.93;2.75;;;15.10;58.90;;;;;;5026358;28;20040;-80
2022/03/18 11:32:14;;;;;;;4.47;2.78;;;15.20;58.20;;;;;;5007465;27;20404;-77
2022/03/18 11:34:46;;;;;;;4.93;1.88;;;15.20;58.40;;;;;;5000906;28;20057;-80
2022/03/18 11:37:11;;;;;;;9.48;2.90;;;15.30;58.20;;;;;;4968661;28;20030;-79
2022/03/18 11:39:38;;;;;;;6.55;2.90;;;15.30;58.10;;;;;;4986427;28;20048;-77
2022/03/18 11:42:10;;;;;;;4.90;3.10;;;15.30;57.80;;;;;;4984986;28;20050;-78
2022/03/18 11:44:55;;;;;;;6.45;3.53;;;15.40;57.70;;;;;;4989625;28;20054;-73
2022/03/18 11:47:28;;;;;;;13.88;3.30;;;15.40;56.90;;;;;;4981411;28;20502;-77
2022/03/18 11:49:54;;;;;;;5.88;3.47;;;15.40;57.40;;;;;;4999705;28;20062;-78
2022/03/18 11:52:19;;;;;;;10.02;3.95;;;15.40;57.30;;;;;;5002817;28;20042;-79
2022/03/18 12:02:44;;;;;;;9.85;3.95;;;15.60;56.70;;;;;;5027350;28;20410;-78
2022/03/18 12:05:09;;;;;;;;;;;15.70;57.00;;;;;;4976820;28;20415;-77
2022/03/18 12:07:51;;;;;;;7.68;3.90;;;15.80;57.30;;;;;;4989255;28;19920;-77
2022/03/18 12:10:35;;;;;;;8.25;3.97;;;15.90;56.40;;;;;;4998911;28;20469;-81
2022/03/18 12:13:05;;;;;;;6.82;3.90;;;16.00;56.40;;;;;;4986116;28;20498;-80
2022/03/18 12:15:32;;;;;;;7.20;3.92;;;16.20;56.80;;;;;;4976349;28;20128;-79
2022/03/18 12:17:58;;;;;;;5.72;3.85;;;16.30;56.70;;;;;;4963437;28;20101;-77
2022/03/18 12:20:25;;;;;;;6.82;4.00;;;16.40;56.40;;;;;;5005616;28;20038;-78
2022/03/18 12:22:52;;;;;;;5.50;3.83;;;16.50;56.20;;;;;;4984567;28;20068;-78
2022/03/18 12:25:17;;;;;;;6.55;3.65;;;16.60;56.90;;;;;;4957568;28;20046;-78
2022/03/18 12:27:44;;;;;;;5.97;4.05;;;16.70;56.10;;;;;;4999033;28;20034;-78
2022/03/18 12:30:16;;;;;;;7.18;4.40;;;16.90;56.00;;;;;;5020518;28;20065;-80
2022/03/18 12:32:48;;;;;;;10.52;4.60;;;17.00;55.40;;;;;;4989581;28;20031;-78
2022/03/18 12:35:16;;;;;;;7.20;4.40;;;17.10;55.00;;;;;;5013098;28;20098;-79
2022/03/18 12:37:42;;;;;;;6.03;4.22;;;17.20;55.00;;;;;;4976320;28;20089;-78
2022/03/18 12:40:08;;;;;;;7.53;4.40;;;17.40;55.00;;;;;;4993272;28;20037;-78
2022/03/18 12:42:49;;;;;;;8.13;4.30;;;17.40;54.60;;;;;;4999580;28;20054;-77
2022/03/18 12:45:30;;;;;;;5.72;4.20;;;17.50;54.00;;;;;;4981463;28;20045;-79
2022/03/18 12:47:56;;;;;;;;;;;17.60;53.90;;;;;;4994702;28;20109;-78
2022/03/18 12:50:30;;;;;;;11.38;4.30;;;17.60;54.40;;;;;;4982512;28;20005;-80
2022/03/18 12:52:56;;;;;;;7.78;4.53;;;17.60;54.20;;;;;;4978201;28;20126;-80
2022/03/18 12:55:24;;;;;;;7.25;4.85;;;17.60;54.10;;;;;;4989073;28;20140;-79
2022/03/18 12:57:49;;;;;;;7.80;5.07;;;17.60;53.90;;;;;;4993011;28;20048;-77
2022/03/18 13:00:17;;;;;;;7.43;4.30;;;17.60;53.80;;;;;;4945055;28;20046;-80
2022/03/18 13:02:43;;;;;;;7.22;4.03;;;17.60;53.50;;;;;;4959280;28;20038;-79
2022/03/18 13:05:10;;;;;;;5.90;3.88;;;17.60;53.30;;;;;;4947210;28;20034;-78
2022/03/18 13:07:36;;;;;;;6.05;3.95;;;17.50;53.00;;;;;;4958575;28;20043;-78
2022/03/18 13:10:02;;;;;;;6.40;4.20;;;17.50;53.00;;;;;;4969523;28;20038;-79
2022/03/18 13:12:31;;;;;;;7.78;3.60;;;17.50;53.00;;;;;;4969783;28;20042;-78
2022/03/18 13:14:58;;;;;;;8.77;3.75;;;17.60;52.90;;;;;;4957870;28;20034;-78
2022/03/18 13:17:27;;;;;;;7.45;3.72;;;17.70;53.00;;;;;;4963411;28;20060;-79